Decoded Metar for KSDB (SANDBERG in CA, USA) (IATA:SDB) | Meteo·Mobile Aviation Weather
aviador You're here:

KSDB Decoded Metar

SANDBERG in CA, USA
Report Time2018-12-11 01:53:00
UTC Time2018-12-11 02:15:56
Flight Rules vfr VFR
Wind050° at 09 kt
W.Rank050° ranks 15
Current wind is above 050° avg. (7.9)
Visibility9999 m
Phenomena:N/A
Clouds:Few 120 Hf
Expected CloudBase > 2,800 ft AGL from Temp-Dew spread
CeilingNone
Temp08°C (ISA +2)
Dew Point01°C (62% RH)
AAT3.0°C
QNH1019 hPa
Density Alt4,649 ft
Elevation4,518 ft
Report Wrong Elevation
Raw Report
KSDB 110153Z AUTO 05009KT 10SM FEW120 08/01 A3010 RMK AO2 SLP173
T00830006=

Extra information for KSDB:More info

Metar Taf Metar & Taf Last 4 Metars F.Rules Stats Wind Profile Meteogram Temp Stats Airport Information Weather charts Add Link Nearby VenuesMetar ALERT Operation Metar Decoded Social comments

AIRNAV info for KSDB